Time;durP1;ratioP1;P1;durP2;ratioP2;P2;SDS_P1;SDS_P2;PMS_P1;PMS_P2;Temp;Humidity;BMP_temperature;BMP_pressure;BME280_temperature;BME280_humidity;BME280_pressure;Samples;Min_cycle;Max_cycle;Signal;HPM_P1;HPM_P2
2023/03/05 00:01:33;;;;;;;5.13;1.87;;;;;;;4.81;100.00;99369.22;4973013;28;20208;-80
2023/03/05 00:04:03;;;;;;;5.67;1.97;;;;;;;4.70;100.00;99366.16;4977241;28;20192;-80
2023/03/05 00:06:33;;;;;;;3.63;1.67;;;;;;;4.70;100.00;99368.78;4976475;28;20203;-80
2023/03/05 00:09:03;;;;;;;3.27;1.67;;;;;;;4.62;100.00;99356.84;4936527;28;20203;-79
2023/03/05 00:11:33;;;;;;;3.60;1.63;;;;;;;4.60;100.00;99367.41;4978924;28;20368;-79
2023/03/05 00:14:05;;;;;;;4.27;1.70;;;;;;;4.63;100.00;99369.06;4972719;28;20203;-80
2023/03/05 00:16:35;;;;;;;3.60;2.13;;;;;;;4.62;100.00;99365.56;4940146;28;20300;-80
2023/03/05 00:19:04;;;;;;;4.90;1.30;;;;;;;4.60;100.00;99362.16;4981843;28;20200;-79
2023/03/05 00:21:35;;;;;;;4.40;1.73;;;;;;;4.58;100.00;99366.59;4972203;28;20196;-79
2023/03/05 00:24:06;;;;;;;6.50;1.53;;;;;;;4.56;100.00;99355.31;4966588;28;20204;-80
2023/03/05 00:26:37;;;;;;;5.80;1.47;;;;;;;4.53;100.00;99358.91;4970403;28;20676;-79
2023/03/05 00:29:06;;;;;;;4.57;1.50;;;;;;;4.51;100.00;99363.34;4973914;28;20321;-80
2023/03/05 00:31:39;;;;;;;2.70;1.27;;;;;;;4.53;100.00;99355.41;4977620;28;20276;-80
2023/03/05 00:34:13;;;;;;;2.90;1.20;;;;;;;4.56;100.00;99352.69;4971121;28;20242;-79
2023/03/05 00:36:43;;;;;;;4.30;1.40;;;;;;;4.51;100.00;99352.84;4967389;28;20219;-79
2023/03/05 00:39:12;;;;;;;5.00;1.63;;;;;;;4.53;100.00;99350.16;4970878;28;20200;-79
2023/03/05 00:41:40;;;;;;;5.33;1.60;;;;;;;4.44;100.00;99343.53;4982462;28;20223;-79
2023/03/05 00:44:09;;;;;;;5.17;1.53;;;;;;;4.50;100.00;99345.91;5004469;28;20256;-79
2023/03/05 00:46:40;;;;;;;5.17;1.60;;;;;;;4.36;100.00;99348.19;5003473;28;20229;-79
2023/03/05 00:49:09;;;;;;;6.77;1.80;;;;;;;4.46;100.00;99341.69;4995118;28;20199;-79
2023/03/05 00:51:37;;;;;;;4.00;1.50;;;;;;;4.35;100.00;99341.22;5001712;28;20237;-80
2023/03/05 00:54:06;;;;;;;4.93;1.50;;;;;;;4.31;100.00;99339.59;4997716;28;20221;-79
2023/03/05 00:56:34;;;;;;;4.20;1.40;;;;;;;4.14;100.00;99337.56;4998114;28;20207;-79
2023/03/05 00:59:03;;;;;;;3.50;1.73;;;;;;;4.12;100.00;99330.69;4999068;28;20191;-79
2023/03/05 01:01:32;;;;;;;5.37;1.40;;;;;;;4.10;100.00;99332.50;4999135;28;20222;-79
2023/03/05 01:04:03;;;;;;;4.87;1.57;;;;;;;4.16;100.00;99327.91;4998841;28;20195;-79
2023/03/05 01:06:31;;;;;;;3.87;1.40;;;;;;;4.10;100.00;99332.50;5001644;28;20322;-80
2023/03/05 01:08:59;;;;;;;4.33;1.50;;;;;;;4.01;100.00;99323.19;4995937;28;20203;-79
2023/03/05 01:11:28;;;;;;;7.70;2.00;;;;;;;4.03;100.00;99322.22;5007197;28;20202;-79
2023/03/05 01:13:56;;;;;;;3.53;1.60;;;;;;;4.02;100.00;99309.19;5011539;28;20226;-79
2023/03/05 01:16:25;;;;;;;3.10;1.50;;;;;;;4.10;100.00;99314.16;5007855;28;20676;-79
2023/03/05 01:18:53;;;;;;;3.63;1.40;;;;;;;4.04;100.00;99304.72;5011275;28;20246;-79
2023/03/05 01:21:23;;;;;;;7.03;2.00;;;;;;;4.08;100.00;99310.75;5008928;28;20766;-80
2023/03/05 01:23:54;;;;;;;3.63;1.60;;;;;;;3.96;100.00;99302.41;5007726;28;20269;-80
2023/03/05 01:26:22;;;;;;;4.30;1.70;;;;;;;3.91;100.00;99296.44;5005722;28;20260;-80
2023/03/05 01:28:51;;;;;;;3.50;1.40;;;;;;;4.00;100.00;99303.16;5003613;28;20642;-79
2023/03/05 01:31:19;;;;;;;3.07;1.30;;;;;;;4.00;100.00;99290.03;5001841;28;20210;-80
2023/03/05 01:33:51;;;;;;;5.20;1.60;;;;;;;3.97;100.00;99298.88;5001776;28;20207;-79
2023/03/05 01:36:19;;;;;;;4.37;1.70;;;;;;;3.96;100.00;99301.56;4999178;28;20210;-80
2023/03/05 01:38:49;;;;;;;3.67;1.40;;;;;;;4.07;100.00;99296.78;4999409;28;20261;-79
2023/03/05 01:41:18;;;;;;;1.77;1.30;;;;;;;4.03;100.00;99295.16;4994607;28;20227;-79
2023/03/05 01:43:47;;;;;;;4.23;1.30;;;;;;;4.10;100.00;99286.19;4998792;28;20237;-79
2023/03/05 01:46:29;;;;;;;1.97;1.27;;;;;;;4.00;100.00;99285.66;4991098;28;20218;-79
2023/03/05 01:49:08;;;;;;;3.77;1.40;;;;;;;4.04;100.00;99278.53;4990750;28;20199;-79
2023/03/05 01:51:40;;;;;;;4.60;1.47;;;;;;;4.09;100.00;99286.25;4999305;28;20214;-78
2023/03/05 01:54:14;;;;;;;3.00;1.57;;;;;;;4.15;100.00;99278.13;4999490;28;20203;-79
2023/03/05 01:56:44;;;;;;;3.40;1.40;;;;;;;4.17;100.00;99269.34;4998744;28;20201;-79
2023/03/05 01:59:13;;;;;;;3.73;1.50;;;;;;;4.24;100.00;99273.41;4998338;28;20219;-79
2023/03/05 02:01:49;;;;;;;3.47;1.53;;;;;;;4.26;100.00;99273.38;4998453;28;20206;-79
2023/03/05 02:04:19;;;;;;;4.40;1.60;;;;;;;4.32;100.00;99268.75;4999403;28;20687;-79
2023/03/05 02:06:49;;;;;;;3.67;1.33;;;;;;;4.36;100.00;99264.28;4990592;28;20253;-79
2023/03/05 02:09:22;;;;;;;1.77;1.27;;;;;;;4.32;100.00;99258.28;4996004;28;20205;-79
2023/03/05 02:11:51;;;;;;;4.00;1.60;;;;;;;4.20;100.00;99263.13;4998487;28;20604;-79
2023/03/05 02:14:19;;;;;;;3.63;1.50;;;;;;;4.27;100.00;99265.47;4999515;28;20207;-79
2023/03/05 02:16:47;;;;;;;3.40;1.43;;;;;;;4.21;100.00;99270.91;4999841;28;20187;-78
2023/03/05 02:19:16;;;;;;;5.73;1.50;;;;;;;4.08;100.00;99260.94;4990692;28;20215;-79
2023/03/05 02:21:48;;;;;;;3.90;1.73;;;;;;;4.26;100.00;99269.00;4996858;28;20202;-79
2023/03/05 02:24:19;;;;;;;2.53;1.37;;;;;;;4.17;100.00;99253.59;4989378;28;20203;-79
2023/03/05 02:26:47;;;;;;;4.33;1.60;;;;;;;3.89;100.00;99256.38;5001401;28;20252;-79
2023/03/05 02:29:20;;;;;;;4.73;1.70;;;;;;;3.99;100.00;99249.03;4997900;28;20195;-79
2023/03/05 02:31:48;;;;;;;4.10;1.40;;;;;;;3.79;100.00;99260.22;5001553;28;20253;-79
2023/03/05 02:34:20;;;;;;;3.83;1.73;;;;;;;3.80;100.00;99263.69;4996394;28;20222;-79
2023/03/05 02:36:50;;;;;;;4.73;1.30;;;;;;;3.70;100.00;99250.91;4994612;28;20274;-79
2023/03/05 02:39:18;;;;;;;4.90;1.37;;;;;;;3.61;100.00;99255.59;4994053;28;20223;-79
2023/03/05 02:41:46;;;;;;;3.57;1.03;;;;;;;3.66;100.00;99251.91;4999726;28;20716;-79
2023/03/05 02:44:15;;;;;;;3.97;1.03;;;;;;;3.66;100.00;99251.03;5001129;28;20207;-79
2023/03/05 02:46:43;;;;;;;2.90;1.10;;;;;;;3.61;100.00;99253.00;4996902;28;20737;-79
2023/03/05 02:49:12;;;;;;;4.23;1.60;;;;;;;3.54;100.00;99260.19;4995702;28;20202;-79
2023/03/05 02:51:40;;;;;;;2.70;1.20;;;;;;;3.56;100.00;99252.28;4998652;28;20199;-80
2023/03/05 02:54:10;;;;;;;2.20;1.20;;;;;;;3.63;100.00;99249.41;5041866;28;20193;-79
2023/03/05 02:56:38;;;;;;;4.70;1.20;;;;;;;3.67;100.00;99245.78;5029382;28;20207;-80
2023/03/05 02:59:07;;;;;;;3.77;1.10;;;;;;;3.57;100.00;99248.75;5042766;28;20282;-79
2023/03/05 03:01:35;;;;;;;3.17;1.00;;;;;;;3.53;100.00;99248.00;5042016;28;20200;-80
2023/03/05 03:04:04;;;;;;;2.83;1.63;;;;;;;3.42;100.00;99240.53;5047675;28;20212;-80
2023/03/05 03:06:32;;;;;;;3.63;1.10;;;;;;;3.43;100.00;99249.22;5052131;28;20192;-79
2023/03/05 03:09:00;;;;;;;1.90;0.97;;;;;;;3.42;100.00;99248.38;5049619;28;20193;-80
2023/03/05 03:11:30;;;;;;;1.37;0.87;;;;;;;3.41;100.00;99235.34;5047544;28;20209;-79
2023/03/05 03:13:59;;;;;;;3.57;1.10;;;;;;;3.41;100.00;99243.19;5049684;28;20212;-80
2023/03/05 03:16:27;;;;;;;2.77;1.20;;;;;;;3.45;100.00;99244.78;5048274;28;20204;-79
2023/03/05 03:18:56;;;;;;;4.77;0.93;;;;;;;3.44;100.00;99241.31;5031712;28;20213;-80
2023/03/05 03:21:25;;;;;;;2.03;0.80;;;;;;;3.49;100.00;99235.94;5045428;28;20200;-81
2023/03/05 03:23:54;;;;;;;3.03;0.83;;;;;;;3.48;100.00;99236.00;5043898;28;20189;-80
2023/03/05 03:26:22;;;;;;;4.13;1.10;;;;;;;3.56;100.00;99234.78;5046577;28;20259;-79
2023/03/05 03:28:52;;;;;;;2.07;0.87;;;;;;;3.64;100.00;99230.16;5050082;28;20242;-79
2023/03/05 03:31:21;;;;;;;3.97;1.00;;;;;;;3.66;100.00;99227.47;5014136;28;20197;-79
2023/03/05 03:33:49;;;;;;;2.73;1.10;;;;;;;3.71;100.00;99225.56;5047154;28;20225;-79
2023/03/05 03:36:17;;;;;;;1.90;1.00;;;;;;;3.71;100.00;99228.19;5040767;28;20226;-79
2023/03/05 03:38:46;;;;;;;3.17;0.90;;;;;;;3.68;100.00;99226.53;4996100;28;20219;-80
2023/03/05 03:41:14;;;;;;;3.03;1.00;;;;;;;3.64;100.00;99222.31;4989920;28;20231;-79
2023/03/05 03:43:43;;;;;;;2.10;0.90;;;;;;;3.67;100.00;99219.59;5000033;28;20214;-79
2023/03/05 03:46:13;;;;;;;3.13;1.00;;;;;;;3.70;100.00;99218.63;5034846;28;20199;-79
2023/03/05 03:48:41;;;;;;;1.23;0.80;;;;;;;3.66;100.00;99214.38;4999932;28;20221;-79
2023/03/05 03:51:09;;;;;;;2.80;0.93;;;;;;;3.67;100.00;99213.50;5000965;28;20195;-79
2023/03/05 03:53:38;;;;;;;3.60;1.00;;;;;;;3.68;100.00;99204.72;4991010;28;20207;-80
2023/03/05 03:56:06;;;;;;;3.63;1.23;;;;;;;3.69;100.00;99204.69;4999198;28;20207;-79
2023/03/05 03:58:35;;;;;;;2.40;0.90;;;;;;;3.72;100.00;99201.09;4996687;28;20226;-80
2023/03/05 04:01:04;;;;;;;3.93;0.80;;;;;;;3.74;100.00;99194.03;5002857;28;20253;-79
2023/03/05 04:03:34;;;;;;;1.83;0.70;;;;;;;3.51;100.00;99194.84;4998371;28;20195;-80
2023/03/05 04:06:03;;;;;;;4.07;1.00;;;;;;;3.43;100.00;99192.47;5041357;28;20206;-80
2023/03/05 04:08:32;;;;;;;3.57;0.80;;;;;;;3.41;100.00;99189.06;4997245;28;20227;-79
2023/03/05 04:11:01;;;;;;;3.40;0.80;;;;;;;3.56;100.00;99184.19;4992977;28;20218;-79
2023/03/05 04:13:29;;;;;;;3.10;1.10;;;;;;;3.50;100.00;99174.81;4992839;28;20194;-79
2023/03/05 04:15:58;;;;;;;2.23;0.80;;;;;;;3.21;100.00;99178.44;5006974;28;20212;-80
2023/03/05 04:18:26;;;;;;;1.90;0.80;;;;;;;3.09;100.00;99179.69;5001605;28;20221;-80
2023/03/05 04:20:56;;;;;;;2.03;0.77;;;;;;;2.98;100.00;99168.72;5003264;28;20195;-79
2023/03/05 04:23:24;;;;;;;3.07;1.10;;;;;;;2.92;100.00;99173.31;4991523;28;20192;-79
2023/03/05 04:25:54;;;;;;;3.67;0.87;;;;;;;2.93;100.00;99157.56;5000767;28;20244;-79
2023/03/05 04:28:22;;;;;;;3.60;0.70;;;;;;;2.83;100.00;99158.78;5001088;28;20211;-79
2023/03/05 04:30:51;;;;;;;4.27;0.93;;;;;;;2.91;100.00;99163.75;5004865;28;20200;-80
2023/03/05 04:33:20;;;;;;;1.57;0.80;;;;;;;3.01;100.00;99159.94;4998772;28;20188;-79
2023/03/05 04:35:48;;;;;;;2.73;0.80;;;;;;;3.17;100.00;99156.72;5000316;28;20196;-79
2023/03/05 04:38:20;;;;;;;2.90;0.80;;;;;;;3.27;100.00;99153.78;5003652;28;20199;-80
2023/03/05 04:40:48;;;;;;;3.60;0.70;;;;;;;3.31;100.00;99156.28;5000917;28;20238;-79
2023/03/05 04:43:16;;;;;;;3.07;0.60;;;;;;;3.32;100.00;99151.88;4997820;28;20195;-80
2023/03/05 04:45:45;;;;;;;2.00;0.70;;;;;;;3.14;100.00;99154.22;4998739;28;20187;-79
2023/03/05 04:48:14;;;;;;;2.00;0.77;;;;;;;3.25;100.00;99147.75;4995587;28;20218;-79
2023/03/05 04:50:43;;;;;;;1.20;0.60;;;;;;;3.31;100.00;99140.56;4998248;28;20643;-79
2023/03/05 04:53:11;;;;;;;1.33;0.60;;;;;;;3.33;100.00;99148.34;5003547;28;20256;-79
2023/03/05 04:55:41;;;;;;;1.73;0.70;;;;;;;3.20;100.00;99147.94;4994939;28;20672;-79
2023/03/05 04:58:10;;;;;;;4.40;0.90;;;;;;;3.34;100.00;99144.81;5001576;28;20191;-79
2023/03/05 05:00:39;;;;;;;2.27;0.70;;;;;;;3.26;100.00;99137.22;4997931;28;20218;-79
2023/03/05 05:03:07;;;;;;;3.50;0.90;;;;;;;3.03;100.00;99131.94;5002666;28;20225;-80
2023/03/05 05:05:36;;;;;;;0.93;0.43;;;;;;;3.20;100.00;99137.47;4996879;28;20191;-79
2023/03/05 05:08:05;;;;;;;2.00;0.77;;;;;;;2.98;100.00;99137.31;4990787;28;20199;-79
2023/03/05 05:10:33;;;;;;;3.87;0.90;;;;;;;3.08;100.00;99135.25;4994023;28;20195;-79
2023/03/05 05:13:03;;;;;;;1.80;0.87;;;;;;;3.08;100.00;99130.88;4997813;28;20197;-79
2023/03/05 05:15:32;;;;;;;2.93;1.00;;;;;;;3.04;100.00;99124.03;4995551;28;20634;-79
2023/03/05 05:18:00;;;;;;;2.57;0.70;;;;;;;2.99;100.00;99132.94;5001170;28;20207;-79
2023/03/05 05:20:29;;;;;;;4.53;1.00;;;;;;;3.11;100.00;99122.09;5000569;28;20708;-79
2023/03/05 05:22:57;;;;;;;2.43;0.80;;;;;;;3.27;100.00;99133.72;5000476;28;20199;-79
2023/03/05 05:25:26;;;;;;;1.23;0.57;;;;;;;3.21;100.00;99135.69;4998945;28;20225;-79
2023/03/05 05:27:54;;;;;;;3.60;0.97;;;;;;;3.15;100.00;99127.13;4999785;28;20199;-79
2023/03/05 05:30:24;;;;;;;3.87;1.00;;;;;;;3.12;100.00;99121.16;4994149;28;20195;-80
2023/03/05 05:32:52;;;;;;;5.13;1.20;;;;;;;2.97;100.00;99121.69;5000713;28;20249;-80
2023/03/05 05:35:21;;;;;;;3.33;0.87;;;;;;;3.08;100.00;99116.94;5002285;28;20193;-79
2023/03/05 05:37:49;;;;;;;3.40;0.80;;;;;;;3.22;100.00;99119.94;4995404;28;20199;-80
2023/03/05 05:40:17;;;;;;;2.57;0.77;;;;;;;3.21;100.00;99126.09;4991312;28;20249;-80
2023/03/05 05:42:46;;;;;;;3.03;0.83;;;;;;;3.26;100.00;99124.16;5049957;28;20224;-80
2023/03/05 05:45:14;;;;;;;2.33;0.80;;;;;;;3.29;100.00;99120.59;5045543;28;20193;-79
2023/03/05 05:47:46;;;;;;;3.73;1.27;;;;;;;3.22;100.00;99116.47;5048991;28;20197;-80
2023/03/05 05:50:15;;;;;;;1.93;0.73;;;;;;;3.31;100.00;99122.25;5046431;28;20193;-80
2023/03/05 05:52:44;;;;;;;3.30;0.73;;;;;;;3.25;100.00;99121.59;5042753;28;20200;-80
2023/03/05 05:55:13;;;;;;;3.37;0.80;;;;;;;3.29;100.00;99125.81;5045201;28;20197;-80
2023/03/05 05:57:41;;;;;;;2.43;0.80;;;;;;;3.13;100.00;99120.25;5049785;28;20197;-80
2023/03/05 06:00:12;;;;;;;3.07;0.90;;;;;;;3.34;100.00;99118.66;5035637;28;20234;-79
2023/03/05 06:02:42;;;;;;;2.00;0.80;;;;;;;3.39;100.00;99114.97;5000016;28;20203;-79
2023/03/05 06:05:14;;;;;;;4.03;0.83;;;;;;;3.30;100.00;99120.53;5001893;28;20244;-79
2023/03/05 06:07:43;;;;;;;3.60;0.93;;;;;;;3.23;100.00;99119.03;4995895;28;20199;-80
2023/03/05 06:10:11;;;;;;;2.70;0.73;;;;;;;3.24;100.00;99122.50;4997744;28;20195;-79
2023/03/05 06:12:40;;;;;;;2.37;0.80;;;;;;;3.30;100.00;99117.91;4992569;28;20195;-79
2023/03/05 06:15:09;;;;;;;1.80;0.90;;;;;;;3.11;100.00;99122.09;4999299;28;20278;-79
2023/03/05 06:17:39;;;;;;;4.10;0.87;;;;;;;3.28;100.00;99121.47;4993119;28;20210;-79
2023/03/05 06:20:08;;;;;;;2.37;0.70;;;;;;;3.14;100.00;99124.59;4995339;28;20218;-79
2023/03/05 06:22:38;;;;;;;2.00;0.80;;;;;;;3.23;100.00;99112.94;4989997;28;20191;-80
2023/03/05 06:25:08;;;;;;;2.10;1.00;;;;;;;3.10;100.00;99121.22;4990735;28;20245;-80
2023/03/05 06:27:38;;;;;;;2.93;0.90;;;;;;;3.22;100.00;99119.94;4990444;28;20195;-79
2023/03/05 06:30:08;;;;;;;0.90;0.70;;;;;;;3.16;100.00;99121.00;5001480;28;20637;-80
2023/03/05 06:32:36;;;;;;;1.30;0.77;;;;;;;3.31;100.00;99124.00;4999784;28;20195;-80
2023/03/05 06:35:07;;;;;;;2.23;0.90;;;;;;;3.29;100.00;99120.59;4996058;28;20253;-79
2023/03/05 06:37:36;;;;;;;3.60;0.80;;;;;;;3.35;100.00;99117.75;4996294;28;20203;-79
2023/03/05 06:40:08;;;;;;;3.37;0.97;;;;;;;3.34;100.00;99126.50;4996738;28;20272;-80
2023/03/05 06:42:37;;;;;;;4.27;1.03;;;;;;;3.33;100.00;99125.66;4971798;28;20232;-79
2023/03/05 06:45:06;;;;;;;3.70;0.87;;;;;;;3.14;100.00;99124.59;4970251;28;20626;-80
2023/03/05 06:47:34;;;;;;;2.10;0.80;;;;;;;3.21;100.00;99120.84;4971249;28;20212;-79
2023/03/05 06:50:02;;;;;;;1.87;0.90;;;;;;;3.31;100.00;99117.00;4969061;28;20246;-80
2023/03/05 06:52:31;;;;;;;4.83;1.23;;;;;;;3.38;100.00;99115.88;4968410;28;20230;-80
2023/03/05 06:54:59;;;;;;;2.53;1.03;;;;;;;3.22;100.00;99121.72;4965677;28;20212;-79
2023/03/05 06:57:29;;;;;;;2.57;1.20;;;;;;;3.16;100.00;99120.16;4972051;28;20200;-80
2023/03/05 06:59:57;;;;;;;5.60;1.00;;;;;;;3.15;100.00;99124.53;4970662;28;20241;-80
2023/03/05 07:02:26;;;;;;;5.07;1.00;;;;;;;3.24;100.00;99115.50;4971343;28;20218;-79
2023/03/05 07:04:54;;;;;;;3.60;1.20;;;;;;;3.08;100.00;99124.78;4969036;28;20287;-79
2023/03/05 07:07:23;;;;;;;2.40;1.20;;;;;;;3.23;100.00;99115.56;4970755;28;20210;-79
2023/03/05 07:09:52;;;;;;;1.83;1.23;;;;;;;3.28;100.00;99122.34;5006498;28;20299;-79
2023/03/05 07:12:20;;;;;;;3.00;0.97;;;;;;;3.30;100.00;99117.91;5004334;28;20202;-79
2023/03/05 07:14:52;;;;;;;5.20;1.40;;;;;;;3.34;100.00;99118.66;5003492;28;20203;-79
2023/03/05 07:17:20;;;;;;;6.07;1.60;;;;;;;3.44;100.00;99114.78;5008036;28;20198;-79
2023/03/05 07:19:49;;;;;;;3.13;1.43;;;;;;;3.38;100.00;99108.03;5005763;28;20338;-80
2023/03/05 07:22:18;;;;;;;4.33;1.70;;;;;;;3.52;100.00;99117.16;5003335;28;20222;-80
2023/03/05 07:24:46;;;;;;;4.20;1.60;;;;;;;3.54;100.00;99115.31;5005337;28;20190;-80
2023/03/05 07:27:16;;;;;;;3.83;1.60;;;;;;;3.42;100.00;99116.63;4996326;28;20215;-79
2023/03/05 07:29:44;;;;;;;5.33;2.10;;;;;;;3.36;100.00;99111.59;5028663;28;20310;-79
2023/03/05 07:32:14;;;;;;;3.37;1.60;;;;;;;3.40;100.00;99100.13;4994787;28;20194;-80
2023/03/05 07:34:42;;;;;;;7.73;2.00;;;;;;;3.29;100.00;99095.28;5027099;28;20240;-79
2023/03/05 07:37:10;;;;;;;4.83;2.03;;;;;;;3.40;100.00;99100.97;5029933;28;20186;-79
2023/03/05 07:39:38;;;;;;;7.73;2.63;;;;;;;3.42;100.00;99093.91;5022484;28;20649;-79
2023/03/05 07:42:07;;;;;;;8.03;2.70;;;;;;;3.52;100.00;99089.19;5033296;28;20336;-79
2023/03/05 07:44:37;;;;;;;7.23;2.67;;;;;;;3.38;100.00;99094.94;5033637;28;20244;-79
2023/03/05 07:47:07;;;;;;;6.80;2.80;;;;;;;3.39;100.00;99086.19;5030871;28;20240;-80
2023/03/05 07:49:38;;;;;;;5.97;2.87;;;;;;;3.37;100.00;99092.34;5033551;28;20244;-80
2023/03/05 07:52:07;;;;;;;7.10;2.87;;;;;;;3.45;100.00;99074.63;5026932;28;20280;-80
2023/03/05 07:54:36;;;;;;;5.13;3.10;;;;;;;3.40;100.00;99080.03;5024113;28;20194;-79
2023/03/05 07:57:05;;;;;;;7.63;2.93;;;;;;;3.52;100.00;99077.88;5029423;28;20277;-80
2023/03/05 07:59:36;;;;;;;6.30;2.83;;;;;;;3.59;100.00;99088.06;5028448;28;20256;-79
2023/03/05 08:02:04;;;;;;;5.13;2.73;;;;;;;3.53;100.00;99083.03;4972611;28;20223;-79
2023/03/05 08:04:32;;;;;;;6.83;2.83;;;;;;;3.64;100.00;99074.78;4965648;28;20651;-79
2023/03/05 08:07:02;;;;;;;8.73;3.53;;;;;;;3.55;100.00;99075.97;4977838;28;20253;-79
2023/03/05 08:09:30;;;;;;;7.27;3.60;;;;;;;3.62;100.00;99074.00;4971460;28;20200;-79
2023/03/05 08:11:59;;;;;;;7.93;3.90;;;;;;;3.55;100.00;99064.66;4981649;28;20200;-80
2023/03/05 08:14:27;;;;;;;10.37;4.30;;;;;;;3.50;100.00;99064.84;4973373;28;20199;-80
2023/03/05 08:16:58;;;;;;;7.50;3.30;;;;;;;3.57;100.00;99063.72;4968108;28;20219;-80
2023/03/05 08:19:26;;;;;;;8.57;3.27;;;;;;;3.86;100.00;99062.63;4971816;28;20199;-80
2023/03/05 08:21:55;;;;;;;5.60;3.10;;;;;;;3.92;100.00;99067.59;4972631;28;20219;-80
2023/03/05 08:24:28;;;;;;;8.30;3.47;;;;;;;4.01;100.00;99063.78;4971661;28;20200;-79
2023/03/05 08:26:57;;;;;;;7.23;3.50;;;;;;;4.10;100.00;99067.81;4972710;28;20238;-79
2023/03/05 08:29:26;;;;;;;7.87;3.47;;;;;;;4.11;100.00;99064.25;4969779;28;20203;-79
2023/03/05 08:31:55;;;;;;;7.97;4.03;;;;;;;4.09;100.00;99056.47;4976335;28;20200;-80
2023/03/05 08:34:23;;;;;;;7.67;4.27;;;;;;;4.02;100.00;99055.84;4977119;28;20196;-80
2023/03/05 08:36:51;;;;;;;8.53;4.07;;;;;;;4.21;100.00;99049.88;4973193;28;20188;-80
2023/03/05 08:39:20;;;;;;;8.73;3.87;;;;;;;4.34;100.00;99045.00;4971943;28;20253;-80
2023/03/05 08:41:50;;;;;;;6.20;3.43;;;;;;;4.35;100.00;99060.69;4986834;28;20231;-79
2023/03/05 08:44:18;;;;;;;6.03;3.17;;;;;;;4.35;100.00;99046.72;4998685;28;20206;-79
2023/03/05 08:46:46;;;;;;;6.03;3.33;;;;;;;4.39;100.00;99045.66;4998535;28;20195;-79
2023/03/05 08:49:15;;;;;;;6.33;3.10;;;;;;;4.36;100.00;99051.91;4998026;28;20265;-80
2023/03/05 08:51:43;;;;;;;6.00;3.73;;;;;;;4.20;100.00;99051.66;5003703;28;20805;-79
2023/03/05 08:54:11;;;;;;;6.83;3.70;;;;;;;4.15;100.00;99051.00;4995661;28;20195;-79
2023/03/05 08:56:40;;;;;;;7.57;3.63;;;;;;;4.29;100.00;99040.78;4998999;28;20195;-79
2023/03/05 08:59:10;;;;;;;7.93;4.37;;;;;;;4.31;100.00;99040.72;5000428;28;20203;-79
2023/03/05 09:01:40;;;;;;;7.97;4.23;;;;;;;4.27;100.00;99045.25;5001752;28;20222;-79
2023/03/05 09:04:09;;;;;;;10.70;4.57;;;;;;;4.31;100.00;99048.59;4998808;28;20195;-79
2023/03/05 09:06:39;;;;;;;7.77;4.33;;;;;;;4.32;100.00;99042.44;4996120;28;20198;-79
2023/03/05 09:09:08;;;;;;;7.03;4.50;;;;;;;4.32;100.00;99037.19;4990946;28;20249;-79
2023/03/05 09:11:37;;;;;;;8.03;4.80;;;;;;;4.29;100.00;99034.69;4999220;28;20192;-79
2023/03/05 09:14:07;;;;;;;7.30;4.73;;;;;;;4.28;100.00;99040.88;4995881;28;20248;-79
2023/03/05 09:16:39;;;;;;;8.17;4.87;;;;;;;4.27;100.00;99028.69;4995981;28;20256;-80
2023/03/05 09:19:09;;;;;;;8.60;5.03;;;;;;;4.13;100.00;99025.75;5000377;28;20211;-79
2023/03/05 09:21:37;;;;;;;9.03;4.83;;;;;;;4.14;100.00;99033.53;4997403;28;20264;-79
2023/03/05 09:24:06;;;;;;;12.00;6.03;;;;;;;4.08;100.00;99036.41;4965205;28;20203;-79
2023/03/05 09:26:34;;;;;;;8.43;4.53;;;;;;;4.10;100.00;99025.88;5000620;28;20198;-80
2023/03/05 09:29:02;;;;;;;8.43;4.90;;;;;;;4.05;100.00;99027.81;4997855;28;20219;-79
2023/03/05 09:31:30;;;;;;;8.40;5.00;;;;;;;3.97;100.00;99036.00;5000334;28;20260;-79
2023/03/05 09:34:00;;;;;;;8.63;4.77;;;;;;;4.14;100.00;99033.53;5001957;28;20223;-79
2023/03/05 09:36:33;;;;;;;8.53;4.70;;;;;;;4.13;100.00;99029.22;5001958;28;20662;-80
2023/03/05 09:39:02;;;;;;;9.43;5.03;;;;;;;4.18;100.00;99029.91;5000172;28;20252;-79
2023/03/05 09:41:54;;;;;;;9.47;5.13;;;;;;;4.15;100.00;99029.16;5000764;28;20222;-79
2023/03/05 09:44:33;;;;;;;9.10;5.13;;;;;;;4.08;100.00;99033.81;5001843;28;20198;-80
2023/03/05 09:47:15;;;;;;;12.63;5.60;;;;;;;3.95;100.00;99032.56;5000688;28;20193;-80
2023/03/05 09:49:55;;;;;;;10.30;6.50;;;;;;;3.88;100.00;99028.50;5000676;28;20191;-80
2023/03/05 09:52:34;;;;;;;11.33;5.43;;;;;;;3.91;100.00;99023.97;5001260;28;20210;-79
2023/03/05 09:55:05;;;;;;;7.97;4.97;;;;;;;3.82;100.00;99018.25;4991249;28;20198;-79
2023/03/05 09:57:42;;;;;;;11.70;6.30;;;;;;;3.88;100.00;99020.63;4997819;28;20199;-79
2023/03/05 10:00:26;;;;;;;13.13;7.20;;;;;;;3.93;100.00;99008.19;4999580;28;20203;-80
2023/03/05 10:02:58;;;;;;;15.87;7.90;;;;;;;3.81;100.00;99000.81;5000335;28;20218;-80
2023/03/05 10:05:45;;;;;;;73.50;37.40;;;;;;;3.98;100.00;99003.63;5001186;28;20203;-80
2023/03/05 10:08:17;;;;;;;13.73;8.33;;;;;;;4.30;100.00;99008.41;4996971;28;20191;-79
2023/03/05 10:10:49;;;;;;;14.10;7.87;;;;;;;4.35;100.00;99010.88;4990920;28;20190;-79
2023/03/05 10:13:24;;;;;;;17.07;10.40;;;;;;;4.14;100.00;99003.84;4997336;28;20210;-79
2023/03/05 10:16:04;;;;;;;10.80;6.57;;;;;;;4.42;100.00;99007.06;4998189;28;20256;-79
2023/03/05 10:18:38;;;;;;;10.03;5.87;;;;;;;4.68;100.00;99005.13;5001963;28;20191;-80
2023/03/05 10:21:13;;;;;;;8.40;6.70;;;;;;;4.42;100.00;99012.31;4996882;28;20202;-80
2023/03/05 10:23:54;;;;;;;9.80;5.33;;;;;;;4.62;100.00;98995.72;4996711;28;20219;-79
2023/03/05 10:26:59;;;;;;;10.70;5.33;;;;;;;4.78;100.00;98998.56;4999773;28;20201;-80
2023/03/05 10:29:54;;;;;;;8.97;5.43;;;;;;;4.89;100.00;98996.31;4996813;28;20203;-79
2023/03/05 10:32:41;;;;;;;10.70;5.90;;;;;;;5.03;100.00;98987.84;4995572;28;20199;-80
2023/03/05 10:35:23;;;;;;;9.00;5.03;;;;;;;5.07;100.00;98977.13;4995640;28;20275;-80
2023/03/05 10:38:13;;;;;;;8.13;4.83;;;;;;;4.86;100.00;98972.84;5035159;28;20256;-79
2023/03/05 10:40:45;;;;;;;8.60;4.50;;;;;;;4.84;100.00;98959.78;5025691;28;20676;-79
2023/03/05 10:43:23;;;;;;;6.90;3.97;;;;;;;4.90;100.00;98953.41;5029741;28;20213;-79
2023/03/05 10:45:54;;;;;;;8.00;4.30;;;;;;;5.04;100.00;98947.56;5026301;28;20205;-79
2023/03/05 10:48:31;;;;;;;8.97;5.13;;;;;;;5.18;100.00;98953.03;5021899;28;20337;-80
2023/03/05 10:51:04;;;;;;;5.90;4.00;;;;;;;5.24;100.00;98951.91;5030075;28;20197;-79
2023/03/05 10:53:38;;;;;;;9.23;5.47;;;;;;;5.02;100.00;98957.25;5024735;28;20224;-79
2023/03/05 10:56:06;;;;;;;6.73;4.03;;;;;;;4.99;100.00;98950.38;5001855;28;20332;-80
2023/03/05 10:58:36;;;;;;;6.80;4.20;;;;;;;4.97;100.00;98948.75;4996242;28;20340;-79
2023/03/05 11:01:06;;;;;;;5.03;3.30;;;;;;;4.91;100.00;98947.25;5000426;28;20199;-80
2023/03/05 11:03:57;;;;;;;8.30;3.30;;;;;;;4.75;100.00;98956.72;5049970;28;20219;-79
2023/03/05 11:06:35;;;;;;;8.20;3.60;;;;;;;4.70;100.00;98940.31;4995128;28;20332;-79
2023/03/05 11:09:21;;;;;;;8.00;3.50;;;;;;;4.63;100.00;98928.38;4988591;28;20195;-79
2023/03/05 11:12:14;;;;;;;5.70;2.90;;;;;;;4.71;100.00;98924.50;4996542;28;20195;-79
2023/03/05 11:14:45;;;;;;;4.17;2.90;;;;;;;4.76;100.00;98927.78;4999544;28;20203;-79
2023/03/05 11:17:32;;;;;;;4.63;2.57;;;;;;;4.82;100.00;98930.13;5003873;28;20207;-79
2023/03/05 11:20:29;;;;;;;6.90;2.50;;;;;;;4.89;100.00;98923.69;4993152;28;20203;-80
2023/03/05 11:23:14;;;;;;;7.40;2.67;;;;;;;4.77;100.00;98918.16;5004505;28;20288;-80
2023/03/05 11:26:00;;;;;;;4.37;2.83;;;;;;;4.70;100.00;98917.56;5002780;28;20350;-80
2023/03/05 11:28:34;;;;;;;4.43;2.27;;;;;;;4.95;100.00;98912.09;4999700;28;20199;-80
2023/03/05 11:31:23;;;;;;;3.13;2.10;;;;;;;4.90;100.00;98916.66;4997980;28;20207;-79
2023/03/05 11:33:59;;;;;;;4.40;2.30;;;;;;;4.99;100.00;98913.63;5002725;28;20284;-79
2023/03/05 11:36:30;;;;;;;4.73;2.40;;;;;;;4.98;100.00;98911.09;5000680;28;20195;-79
2023/03/05 11:39:08;;;;;;;3.13;2.00;;;;;;;4.94;100.00;98907.75;5041646;28;20199;-80
2023/03/05 11:41:42;;;;;;;3.37;1.77;;;;;;;4.98;100.00;98903.22;5002308;28;20227;-80
2023/03/05 11:44:15;;;;;;;2.53;1.53;;;;;;;5.03;100.00;98906.50;4992908;28;20273;-80
2023/03/05 11:46:47;;;;;;;4.37;1.90;;;;;;;5.12;100.00;98906.06;5006149;28;20207;-80
2023/03/05 11:49:21;;;;;;;2.37;1.70;;;;;;;5.25;100.00;98896.69;5021687;28;20196;-80